Time;durP1;ratioP1;P1;durP2;ratioP2;P2;SDS_P1;SDS_P2;PMS_P1;PMS_P2;Temp;Humidity;BMP_temperature;BMP_pressure;BME280_temperature;BME280_humidity;BME280_pressure;Samples;Min_cycle;Max_cycle;Signal;HPM_P1;HPM_P2
2021/06/03 00:00:41;;;;;;;9.25;7.32;;;;;;;;;;5091879;28;20016;-79
2021/06/03 00:03:07;;;;;;;12.10;7.72;;;;;;;;;;5093320;28;20102;-79
2021/06/03 00:05:36;;;;;;;7.45;6.75;;;;;;;;;;5092890;28;20107;-79
2021/06/03 00:08:02;;;;;;;8.75;6.55;;;;;;;;;;5095342;28;20020;-80
2021/06/03 00:10:29;;;;;;;8.65;6.90;;;;;;;;;;5092686;28;20056;-79
2021/06/03 00:12:56;;;;;;;8.15;6.65;;;;;;;;;;5093434;28;20098;-79
2021/06/03 00:15:22;;;;;;;8.38;6.82;;;;;;;;;;5093798;28;20035;-78
2021/06/03 00:17:48;;;;;;;6.95;6.35;;;;;;;;;;5093956;28;20074;-82
2021/06/03 00:20:15;;;;;;;8.80;7.03;;;;;;;;;;5093737;28;20112;-79
2021/06/03 00:22:42;;;;;;;8.18;6.20;;;;;;;;;;5093232;28;20036;-79
2021/06/03 00:25:08;;;;;;;7.60;6.88;;;;;;;;;;5093097;28;20028;-79
2021/06/03 00:27:34;;;;;;;7.32;6.72;;;;;;;;;;5093347;28;20028;-79
2021/06/03 00:30:00;;;;;;;8.90;7.13;;;;;;;;;;5093674;28;20473;-79
2021/06/03 00:32:26;;;;;;;7.70;6.50;;;;;;;;;;5094116;28;20028;-79
2021/06/03 00:34:52;;;;;;;9.13;6.95;;;;;;;;;;5092112;28;20027;-79
2021/06/03 00:37:18;;;;;;;8.75;6.80;;;;;;;;;;5093498;28;20028;-78
2021/06/03 00:39:44;;;;;;;7.40;6.65;;;;;;;;;;5093066;28;20389;-79
2021/06/03 00:42:11;;;;;;;7.70;7.00;;;;;;;;;;5093657;28;20064;-78
2021/06/03 00:44:37;;;;;;;8.10;7.07;;;;;;;;;;5093676;28;20066;-79
2021/06/03 00:47:03;;;;;;;7.57;6.40;;;;;;;;;;5093523;28;20020;-79
2021/06/03 00:49:29;;;;;;;7.55;6.85;;;;;;;;;;5092829;28;20058;-79
2021/06/03 00:51:56;;;;;;;11.98;7.35;;;;;;;;;;5094212;28;20147;-79
2021/06/03 00:54:22;;;;;;;7.40;6.63;;;;;;;;;;5093734;28;20031;-79
2021/06/03 00:56:49;;;;;;;8.18;6.65;;;;;;;;;;5094911;28;20020;-76
2021/06/03 00:59:17;;;;;;;7.53;6.68;;;;;;;;;;5094696;28;20465;-76
2021/06/03 01:01:44;;;;;;;10.20;7.40;;;;;;;;;;5094638;28;20530;-78
2021/06/03 01:04:16;;;;;;;8.30;7.43;;;;;;;;;;5094655;28;20111;-78
2021/06/03 01:06:45;;;;;;;7.82;7.07;;;;;;;;;;5094279;28;20020;-78
2021/06/03 01:09:15;;;;;;;7.47;6.88;;;;;;;;;;5094242;28;20052;-78
2021/06/03 01:11:45;;;;;;;8.65;7.65;;;;;;;;;;5094177;28;20020;-78
2021/06/03 01:14:15;;;;;;;7.78;7.18;;;;;;;;;;5093572;28;20142;-78
2021/06/03 01:16:42;;;;;;;8.18;7.25;;;;;;;;;;5094504;28;20024;-78
2021/06/03 01:19:15;;;;;;;12.85;7.07;;;;;;;;;;5094751;28;20039;-78
2021/06/03 01:21:45;;;;;;;8.15;7.38;;;;;;;;;;5093957;28;20040;-78
2021/06/03 01:24:31;;;;;;;11.20;7.40;;;;;;;;;;5094629;28;20110;-78
2021/06/03 01:26:59;;;;;;;9.18;7.43;;;;;;;;;;5094607;28;20048;-78
2021/06/03 01:29:26;;;;;;;7.35;6.65;;;;;;;;;;5093169;28;20381;-77
2021/06/03 01:31:56;;;;;;;7.50;6.82;;;;;;;;;;5093605;28;20024;-78
2021/06/03 01:34:24;;;;;;;8.70;6.68;;;;;;;;;;5093228;28;20020;-78
2021/06/03 01:36:51;;;;;;;7.82;7.03;;;;;;;;;;5094112;28;20052;-78
2021/06/03 01:39:18;;;;;;;8.20;6.30;;;;;;;;;;5094520;28;20024;-78
2021/06/03 01:41:45;;;;;;;8.45;7.13;;;;;;;;;;5092232;28;20043;-80
2021/06/03 01:44:11;;;;;;;7.40;6.70;;;;;;;;;;5090867;28;20028;-78
2021/06/03 01:46:38;;;;;;;6.60;6.07;;;;;;;;;;5091732;28;20673;-78
2021/06/03 01:49:04;;;;;;;9.05;7.55;;;;;;;;;;5091631;28;20055;-78
2021/06/03 01:51:30;;;;;;;8.23;6.80;;;;;;;;;;5090832;28;20063;-79
2021/06/03 01:53:56;;;;;;;7.22;6.55;;;;;;;;;;5091068;28;20410;-78
2021/06/03 01:56:22;;;;;;;8.13;7.38;;;;;;;;;;5092826;28;20038;-78
2021/06/03 01:58:48;;;;;;;7.53;6.90;;;;;;;;;;5092220;28;20020;-78
2021/06/03 02:01:15;;;;;;;11.15;6.38;;;;;;;;;;5091388;28;20417;-78
2021/06/03 02:03:41;;;;;;;8.38;6.95;;;;;;;;;;5092028;28;20115;-78
2021/06/03 02:06:07;;;;;;;7.53;6.70;;;;;;;;;;5092741;28;20024;-78
2021/06/03 02:08:33;;;;;;;7.18;6.53;;;;;;;;;;5091115;28;20048;-78
2021/06/03 02:10:59;;;;;;;10.50;7.28;;;;;;;;;;5092796;28;20081;-78
2021/06/03 02:13:26;;;;;;;7.85;7.13;;;;;;;;;;5091060;28;20123;-78
2021/06/03 02:16:03;;;;;;;8.50;6.05;;;;;;;;;;5091181;28;20077;-78
2021/06/03 02:18:30;;;;;;;7.68;6.22;;;;;;;;;;5090903;28;20020;-78
2021/06/03 02:20:57;;;;;;;7.38;6.38;;;;;;;;;;5092662;28;20027;-78
2021/06/03 02:23:23;;;;;;;9.85;6.72;;;;;;;;;;5091344;28;20032;-78
2021/06/03 02:25:50;;;;;;;7.18;6.38;;;;;;;;;;5091176;28;20028;-78
2021/06/03 02:28:16;;;;;;;8.50;6.80;;;;;;;;;;5094686;28;20023;-78
2021/06/03 02:30:42;;;;;;;7.03;6.43;;;;;;;;;;5095725;28;20031;-78
2021/06/03 02:33:08;;;;;;;7.22;5.93;;;;;;;;;;5095369;28;20032;-78
2021/06/03 02:35:34;;;;;;;9.95;6.18;;;;;;;;;;5095314;28;20452;-77
2021/06/03 02:38:00;;;;;;;10.15;6.57;;;;;;;;;;5094821;28;20024;-78
2021/06/03 02:40:28;;;;;;;8.13;6.55;;;;;;;;;;5094852;28;20019;-79
2021/06/03 02:42:54;;;;;;;7.50;6.57;;;;;;;;;;5094570;28;20035;-78
2021/06/03 02:45:21;;;;;;;13.35;6.18;;;;;;;;;;5095159;28;20055;-78
2021/06/03 02:47:47;;;;;;;6.97;5.88;;;;;;;;;;5093900;28;20020;-78
2021/06/03 02:50:14;;;;;;;10.02;7.15;;;;;;;;;;5093379;28;20052;-78
2021/06/03 02:52:40;;;;;;;6.57;5.88;;;;;;;;;;5093979;28;20063;-78
2021/06/03 02:55:07;;;;;;;6.70;6.07;;;;;;;;;;5096231;28;20020;-77
2021/06/03 02:57:33;;;;;;;7.38;6.57;;;;;;;;;;5095206;28;20377;-77
2021/06/03 02:59:59;;;;;;;7.68;6.10;;;;;;;;;;5095774;28;20036;-78
2021/06/03 03:02:25;;;;;;;16.48;8.18;;;;;;;;;;5094611;28;20050;-78
2021/06/03 03:04:51;;;;;;;25.90;14.43;;;;;;;;;;5088745;28;20133;-78
2021/06/03 03:07:17;;;;;;;37.45;14.98;;;;;;;;;;5090522;28;20046;-78
2021/06/03 03:09:43;;;;;;;29.80;16.25;;;;;;;;;;5091150;28;20024;-78
2021/06/03 03:12:10;;;;;;;27.90;16.48;;;;;;;;;;5090523;28;20059;-78
2021/06/03 03:14:37;;;;;;;33.72;14.52;;;;;;;;;;5091230;28;20031;-77
2021/06/03 03:17:03;;;;;;;30.10;12.57;;;;;;;;;;5090823;28;20024;-77
2021/06/03 03:19:30;;;;;;;28.75;14.02;;;;;;;;;;5090343;28;20022;-78
2021/06/03 03:21:56;;;;;;;34.30;15.38;;;;;;;;;;5090710;28;20538;-77
2021/06/03 03:24:22;;;;;;;25.17;13.68;;;;;;;;;;5090181;28;20028;-78
2021/06/03 03:26:48;;;;;;;26.45;15.95;;;;;;;;;;5089840;28;20028;-77
2021/06/03 03:29:14;;;;;;;37.28;15.82;;;;;;;;;;5090359;28;20403;-78
2021/06/03 03:31:40;;;;;;;35.60;14.48;;;;;;;;;;5092713;28;20024;-78
2021/06/03 03:34:06;;;;;;;23.70;14.68;;;;;;;;;;5090639;28;20114;-78
2021/06/03 03:36:32;;;;;;;25.63;13.98;;;;;;;;;;5089458;28;20089;-78
2021/06/03 03:38:58;;;;;;;23.98;13.15;;;;;;;;;;5088999;28;20012;-78
2021/06/03 03:41:24;;;;;;;38.75;14.85;;;;;;;;;;5090199;28;20032;-77
2021/06/03 03:43:51;;;;;;;16.50;12.77;;;;;;;;;;5088783;28;20084;-78
2021/06/03 03:46:17;;;;;;;24.48;13.07;;;;;;;;;;5092078;28;20470;-78
2021/06/03 03:48:43;;;;;;;21.42;11.40;;;;;;;;;;5093658;28;20373;-79
2021/06/03 03:51:12;;;;;;;24.63;11.93;;;;;;;;;;5093862;28;20016;-78
2021/06/03 03:53:39;;;;;;;27.65;13.80;;;;;;;;;;5093620;28;20016;-81
2021/06/03 03:56:05;;;;;;;16.17;11.57;;;;;;;;;;5094313;28;20196;-82
2021/06/03 03:58:32;;;;;;;19.05;12.95;;;;;;;;;;5093926;28;20044;-79
2021/06/03 04:00:58;;;;;;;21.80;11.20;;;;;;;;;;5093803;28;20012;-78
2021/06/03 04:03:24;;;;;;;17.13;11.40;;;;;;;;;;5094196;28;20533;-79
2021/06/03 04:05:50;;;;;;;20.73;11.10;;;;;;;;;;5094220;28;20032;-79
2021/06/03 04:08:16;;;;;;;17.77;11.45;;;;;;;;;;5093659;28;20024;-79
2021/06/03 04:10:42;;;;;;;19.15;11.77;;;;;;;;;;5093057;28;20023;-79
2021/06/03 04:13:08;;;;;;;19.70;11.43;;;;;;;;;;5089318;28;20028;-77
2021/06/03 04:15:34;;;;;;;18.98;12.20;;;;;;;;;;5089881;28;20461;-78
2021/06/03 04:18:00;;;;;;;23.65;11.82;;;;;;;;;;5091613;28;20020;-79
2021/06/03 04:20:28;;;;;;;19.10;10.65;;;;;;;;;;5094709;28;20030;-79
2021/06/03 04:22:54;;;;;;;18.20;10.88;;;;;;;;;;5094253;28;20025;-79
2021/06/03 04:25:20;;;;;;;19.10;10.55;;;;;;;;;;5093812;28;20065;-81
2021/06/03 04:27:46;;;;;;;14.68;10.52;;;;;;;;;;5093890;28;20080;-78
2021/06/03 04:30:14;;;;;;;11.27;9.57;;;;;;;;;;5095318;28;20020;-79
2021/06/03 04:32:40;;;;;;;11.35;9.07;;;;;;;;;;5094250;28;20016;-78
2021/06/03 04:35:06;;;;;;;14.77;9.82;;;;;;;;;;5092831;28;20020;-79
2021/06/03 04:37:32;;;;;;;11.93;8.93;;;;;;;;;;5094342;28;20027;-77
2021/06/03 04:39:58;;;;;;;20.42;9.68;;;;;;;;;;5093875;28;20027;-81
2021/06/03 04:42:25;;;;;;;13.45;8.75;;;;;;;;;;5091713;28;20209;-80
2021/06/03 04:44:51;;;;;;;15.18;8.43;;;;;;;;;;5091702;28;20550;-79
2021/06/03 04:47:17;;;;;;;13.95;8.93;;;;;;;;;;5093038;28;20024;-79
2021/06/03 04:49:43;;;;;;;14.52;8.50;;;;;;;;;;5092380;28;20376;-79
2021/06/03 04:54:56;;;;;;;10.02;8.15;;;;;;;;;;5078160;28;20093;-79
2021/06/03 04:57:22;;;;;;;17.50;9.25;;;;;;;;;;5093818;28;20024;-81
2021/06/03 04:59:48;;;;;;;16.50;8.38;;;;;;;;;;5092359;28;20055;-80
2021/06/03 05:02:14;;;;;;;9.68;8.63;;;;;;;;;;5091252;28;20024;-79
2021/06/03 05:04:40;;;;;;;12.40;8.65;;;;;;;;;;5091732;28;20024;-79
2021/06/03 05:07:07;;;;;;;11.30;8.48;;;;;;;;;;5091988;28;20073;-77
2021/06/03 05:09:33;;;;;;;10.95;8.25;;;;;;;;;;5093873;28;20366;-78
2021/06/03 05:11:59;;;;;;;16.42;7.90;;;;;;;;;;5092882;28;20032;-78
2021/06/03 05:14:25;;;;;;;12.23;8.35;;;;;;;;;;5094419;28;20078;-77
2021/06/03 05:16:51;;;;;;;9.75;7.85;;;;;;;;;;5094638;28;20027;-80
2021/06/03 05:19:17;;;;;;;17.85;7.82;;;;;;;;;;5094596;28;20024;-79
2021/06/03 05:21:43;;;;;;;11.63;7.28;;;;;;;;;;5094441;28;20024;-82
2021/06/03 05:24:09;;;;;;;15.77;7.50;;;;;;;;;;5093569;28;20024;-79
2021/06/03 05:26:36;;;;;;;8.73;7.60;;;;;;;;;;5092264;28;20481;-82
2021/06/03 05:29:02;;;;;;;8.52;7.50;;;;;;;;;;5093931;28;20024;-78
2021/06/03 05:31:28;;;;;;;25.10;8.20;;;;;;;;;;5094544;28;20098;-77
2021/06/03 05:33:54;;;;;;;8.90;7.07;;;;;;;;;;5095025;28;20062;-77
2021/06/03 05:36:20;;;;;;;18.83;7.53;;;;;;;;;;5093135;28;20046;-77
2021/06/03 05:38:46;;;;;;;12.85;6.63;;;;;;;;;;5093418;28;20073;-79
2021/06/03 05:41:12;;;;;;;15.20;7.88;;;;;;;;;;5094005;28;20039;-77
2021/06/03 05:43:38;;;;;;;23.50;8.13;;;;;;;;;;5093166;28;20479;-77
2021/06/03 05:46:04;;;;;;;8.27;6.80;;;;;;;;;;5093847;28;20035;-77
2021/06/03 05:48:30;;;;;;;9.75;6.97;;;;;;;;;;5092924;28;20054;-77
2021/06/03 05:50:56;;;;;;;17.95;7.28;;;;;;;;;;5093534;28;20031;-80
2021/06/03 05:53:22;;;;;;;9.10;6.63;;;;;;;;;;5093112;28;20028;-78
2021/06/03 05:55:48;;;;;;;13.75;6.97;;;;;;;;;;5093319;28;20493;-76
2021/06/03 05:58:15;;;;;;;9.38;7.13;;;;;;;;;;5093627;28;20063;-80
2021/06/03 06:00:41;;;;;;;8.68;6.68;;;;;;;;;;5094496;28;20032;-78
2021/06/03 06:03:16;;;;;;;13.68;6.38;;;;;;;;;;5097339;28;20035;-81
2021/06/03 06:08:28;;;;;;;15.05;6.88;;;;;;;;;;5089331;28;20035;-81
2021/06/03 06:10:54;;;;;;;26.90;7.47;;;;;;;;;;5107553;28;20022;-79
2021/06/03 06:13:21;;;;;;;27.35;6.88;;;;;;;;;;5105866;28;20024;-77
2021/06/03 06:15:48;;;;;;;10.18;6.85;;;;;;;;;;5105869;28;20361;-79
2021/06/03 06:18:14;;;;;;;23.65;6.65;;;;;;;;;;5107449;28;20035;-82
2021/06/03 06:20:40;;;;;;;9.50;6.43;;;;;;;;;;5105163;28;20019;-77
2021/06/03 06:23:07;;;;;;;20.67;6.22;;;;;;;;;;5105738;28;20032;-84
2021/06/03 06:25:33;;;;;;;12.27;6.30;;;;;;;;;;5106799;28;20376;-77
2021/06/03 06:27:59;;;;;;;9.18;6.55;;;;;;;;;;5104679;28;20404;-77
2021/06/03 06:30:26;;;;;;;8.30;6.65;;;;;;;;;;5105380;28;20022;-80
2021/06/03 06:32:52;;;;;;;18.55;7.28;;;;;;;;;;5106403;28;20135;-78
2021/06/03 06:35:18;;;;;;;18.35;6.60;;;;;;;;;;5104214;28;20031;-74
2021/06/03 06:37:44;;;;;;;12.75;7.07;;;;;;;;;;5105812;28;20537;-78
2021/06/03 06:40:10;;;;;;;6.03;5.40;;;;;;;;;;5115375;28;20049;-77
2021/06/03 06:42:36;;;;;;;11.50;6.60;;;;;;;;;;5116267;28;20088;-77
2021/06/03 06:45:04;;;;;;;15.13;6.75;;;;;;;;;;5115425;28;20111;-79
2021/06/03 06:47:31;;;;;;;6.72;5.60;;;;;;;;;;5116576;28;20346;-80
2021/06/03 06:49:57;;;;;;;9.55;6.32;;;;;;;;;;5116777;28;20047;-76
2021/06/03 06:52:23;;;;;;;12.93;7.03;;;;;;;;;;5116700;28;20015;-78
2021/06/03 06:54:49;;;;;;;7.80;5.95;;;;;;;;;;5117028;28;20027;-79
2021/06/03 06:57:16;;;;;;;11.63;6.45;;;;;;;;;;5117115;28;20074;-77
2021/06/03 06:59:42;;;;;;;6.95;5.97;;;;;;;;;;5116388;28;20456;-78
2021/06/03 07:02:08;;;;;;;8.15;6.10;;;;;;;;;;5116519;28;20024;-75
2021/06/03 07:04:34;;;;;;;8.27;4.88;;;;;;;;;;5116337;28;20024;-74
2021/06/03 07:07:00;;;;;;;8.88;6.88;;;;;;;;;;5116544;28;20093;-79
2021/06/03 07:09:26;;;;;;;7.35;6.47;;;;;;;;;;5111924;28;20028;-75
2021/06/03 07:11:52;;;;;;;14.80;5.97;;;;;;;;;;5095337;28;20024;-75
2021/06/03 07:14:18;;;;;;;14.35;6.03;;;;;;;;;;5094934;28;20107;-78
2021/06/03 07:16:44;;;;;;;9.50;6.35;;;;;;;;;;5096060;28;20035;-78
2021/06/03 07:19:11;;;;;;;7.53;6.18;;;;;;;;;;5095448;28;20389;-80
2021/06/03 07:21:37;;;;;;;10.45;6.25;;;;;;;;;;5095679;28;20095;-78
2021/06/03 07:24:03;;;;;;;9.88;6.35;;;;;;;;;;5095873;28;20047;-81
2021/06/03 07:26:29;;;;;;;8.23;6.57;;;;;;;;;;5095238;28;20031;-81
2021/06/03 07:28:55;;;;;;;16.10;7.03;;;;;;;;;;5095843;28;20032;-84
2021/06/03 07:31:21;;;;;;;10.10;6.45;;;;;;;;;;5095239;28;20469;-86
2021/06/03 07:33:47;;;;;;;239.32;53.30;;;;;;;;;;5095292;28;20508;-81
2021/06/03 07:36:13;;;;;;;72.57;25.40;;;;;;;;;;5096071;28;20039;-80
2021/06/03 07:38:40;;;;;;;85.70;24.90;;;;;;;;;;5094992;28;20105;-77
2021/06/03 07:41:08;;;;;;;94.78;24.67;;;;;;;;;;5094514;28;20024;-79
2021/06/03 07:43:34;;;;;;;71.97;21.08;;;;;;;;;;5093849;28;20158;-79
2021/06/03 07:46:00;;;;;;;93.50;20.10;;;;;;;;;;5095717;28;20028;-82
2021/06/03 07:48:26;;;;;;;59.75;15.70;;;;;;;;;;5095096;28;20549;-82
2021/06/03 07:50:52;;;;;;;45.28;17.33;;;;;;;;;;5094850;28;20114;-83
2021/06/03 07:53:18;;;;;;;42.80;16.02;;;;;;;;;;5095988;28;20020;-85
2021/06/03 07:55:44;;;;;;;55.22;18.92;;;;;;;;;;5095576;28;20063;-84
2021/06/03 07:58:11;;;;;;;53.10;14.75;;;;;;;;;;5095806;28;20028;-84
2021/06/03 08:00:39;;;;;;;36.22;13.10;;;;;;;;;;5095063;28;20032;-83
2021/06/03 08:03:05;;;;;;;23.13;11.98;;;;;;;;;;5095731;28;20335;-81
2021/06/03 08:05:31;;;;;;;39.55;12.98;;;;;;;;;;5095191;28;20028;-85
2021/06/03 08:07:57;;;;;;;21.63;9.77;;;;;;;;;;5095780;28;20016;-80
2021/06/03 08:10:25;;;;;;;44.38;12.55;;;;;;;;;;5095202;28;20021;-80
2021/06/03 08:12:51;;;;;;;25.17;11.77;;;;;;;;;;5095062;28;20408;-78
2021/06/03 08:15:17;;;;;;;27.50;11.38;;;;;;;;;;5095327;28;20021;-76
2021/06/03 08:17:44;;;;;;;27.05;9.90;;;;;;;;;;5094856;28;20452;-78
2021/06/03 08:20:11;;;;;;;33.28;10.57;;;;;;;;;;5095227;28;20028;-79
2021/06/03 08:22:37;;;;;;;17.15;9.75;;;;;;;;;;5094643;28;20036;-82
2021/06/03 08:25:04;;;;;;;25.65;10.13;;;;;;;;;;5095460;28;20110;-80
2021/06/03 08:27:30;;;;;;;22.08;9.13;;;;;;;;;;5094695;28;20460;-81
2021/06/03 08:29:56;;;;;;;14.80;7.68;;;;;;;;;;5094708;28;20023;-81
2021/06/03 08:32:22;;;;;;;15.15;8.35;;;;;;;;;;5094664;28;20032;-81
2021/06/03 08:34:48;;;;;;;27.23;8.93;;;;;;;;;;5095121;28;20182;-81
2021/06/03 08:37:14;;;;;;;16.77;8.38;;;;;;;;;;5094903;28;20031;-81
2021/06/03 08:39:40;;;;;;;16.08;7.85;;;;;;;;;;5095134;28;20074;-81
2021/06/03 08:42:07;;;;;;;16.40;8.77;;;;;;;;;;5094955;28;20441;-81
2021/06/03 08:44:33;;;;;;;11.15;6.57;;;;;;;;;;5094317;28;20425;-81
2021/06/03 08:46:59;;;;;;;14.27;8.55;;;;;;;;;;5094559;28;20032;-81
2021/06/03 08:49:25;;;;;;;12.70;7.75;;;;;;;;;;5102755;28;20057;-81
2021/06/03 08:51:52;;;;;;;10.73;7.35;;;;;;;;;;5096567;28;20040;-82
2021/06/03 08:54:18;;;;;;;15.77;6.85;;;;;;;;;;5114791;28;20028;-81
2021/06/03 08:56:44;;;;;;;13.48;6.43;;;;;;;;;;5113523;28;20015;-85
2021/06/03 08:59:10;;;;;;;13.93;6.85;;;;;;;;;;5114571;28;20023;-81
2021/06/03 09:01:36;;;;;;;8.38;6.15;;;;;;;;;;5114178;28;20032;-82
2021/06/03 09:04:02;;;;;;;32.40;7.50;;;;;;;;;;5114565;28;20023;-82
2021/06/03 09:06:28;;;;;;;14.52;7.03;;;;;;;;;;5114435;28;20085;-80
2021/06/03 09:08:58;;;;;;;7.53;6.32;;;;;;;;;;5114470;28;20366;-78
2021/06/03 09:11:24;;;;;;;21.60;5.82;;;;;;;;;;5115795;28;20403;-77
2021/06/03 09:13:51;;;;;;;13.70;6.05;;;;;;;;;;5116230;28;20123;-82
2021/06/03 09:16:20;;;;;;;14.40;6.60;;;;;;;;;;5116617;28;20373;-82
2021/06/03 09:18:48;;;;;;;16.27;7.53;;;;;;;;;;5118106;28;20035;-80
2021/06/03 09:21:18;;;;;;;8.75;6.43;;;;;;;;;;5117401;28;20030;-78
2021/06/03 09:23:45;;;;;;;11.57;7.18;;;;;;;;;;5117259;28;20056;-81
2021/06/03 09:26:12;;;;;;;13.45;7.78;;;;;;;;;;5117497;28;20048;-82
2021/06/03 09:28:39;;;;;;;17.48;6.85;;;;;;;;;;5117291;28;20030;-80
2021/06/03 09:31:06;;;;;;;10.82;6.85;;;;;;;;;;5117518;28;20020;-78
2021/06/03 09:33:45;;;;;;;6.80;6.10;;;;;;;;;;5117184;28;20065;-78
2021/06/03 09:36:13;;;;;;;13.13;6.57;;;;;;;;;;5111660;28;20024;-80
2021/06/03 09:38:55;;;;;;;9.40;6.75;;;;;;;;;;5101129;28;20115;-77
2021/06/03 09:41:21;;;;;;;22.83;7.55;;;;;;;;;;5100368;28;20039;-79
2021/06/03 09:43:47;;;;;;;17.50;5.75;;;;;;;;;;5098172;28;20028;-80
2021/06/03 09:46:14;;;;;;;15.05;5.63;;;;;;;;;;5098169;28;20024;-78
2021/06/03 09:48:41;;;;;;;8.25;5.68;;;;;;;;;;5097639;28;20052;-74
2021/06/03 09:51:25;;;;;;;6.75;5.35;;;;;;;;;;5098123;28;20028;-77
2021/06/03 09:53:54;;;;;;;10.77;5.97;;;;;;;;;;5097851;28;20021;-75
2021/06/03 09:56:21;;;;;;;13.82;5.90;;;;;;;;;;5097638;28;20039;-78
2021/06/03 09:58:48;;;;;;;11.23;5.43;;;;;;;;;;5099079;28;20024;-73
2021/06/03 10:01:14;;;;;;;22.60;5.90;;;;;;;;;;5098696;28;20020;-81
2021/06/03 10:03:48;;;;;;;12.25;6.20;;;;;;;;;;5099697;28;20028;-79
2021/06/03 10:06:15;;;;;;;13.68;6.10;;;;;;;;;;5099480;28;20027;-85
2021/06/03 10:08:48;;;;;;;6.05;5.45;;;;;;;;;;5100873;28;20093;-87
2021/06/03 10:11:34;;;;;;;18.30;5.38;;;;;;;;;;5101195;28;20063;-82
2021/06/03 10:14:07;;;;;;;7.07;5.78;;;;;;;;;;5084951;28;20077;-80
2021/06/03 10:16:34;;;;;;;10.68;6.10;;;;;;;;;;5095673;28;20020;-79
2021/06/03 10:19:20;;;;;;;5.35;4.72;;;;;;;;;;5096070;28;21181;-78
2021/06/03 10:21:46;;;;;;;8.07;5.05;;;;;;;;;;5096540;28;20473;-76
2021/06/03 10:24:12;;;;;;;5.72;4.50;;;;;;;;;;5096707;28;20086;-79
2021/06/03 10:26:58;;;;;;;13.95;5.65;;;;;;;;;;5096581;28;20899;-74
2021/06/03 10:29:24;;;;;;;9.80;5.47;;;;;;;;;;5095360;28;20112;-73
2021/06/03 10:31:50;;;;;;;7.88;6.03;;;;;;;;;;5096834;28;20020;-76
2021/06/03 10:34:16;;;;;;;9.43;5.63;;;;;;;;;;5096952;28;20020;-74
2021/06/03 10:36:43;;;;;;;13.70;4.65;;;;;;;;;;5096521;28;20061;-74
2021/06/03 10:39:09;;;;;;;13.90;5.40;;;;;;;;;;5096576;28;20030;-75
2021/06/03 10:41:36;;;;;;;6.63;4.88;;;;;;;;;;5096138;28;20028;-74
2021/06/03 10:44:05;;;;;;;5.70;4.95;;;;;;;;;;5096790;28;20115;-76
2021/06/03 10:46:31;;;;;;;6.45;5.22;;;;;;;;;;5095671;28;20107;-76
2021/06/03 10:48:57;;;;;;;5.20;4.22;;;;;;;;;;5094973;28;20109;-73
2021/06/03 10:51:23;;;;;;;6.07;5.13;;;;;;;;;;5096563;28;20362;-77
2021/06/03 10:53:49;;;;;;;18.38;4.70;;;;;;;;;;5096383;28;20030;-76
2021/06/03 10:56:19;;;;;;;8.90;4.63;;;;;;;;;;5096262;28;20028;-76
2021/06/03 10:58:45;;;;;;;5.28;4.53;;;;;;;;;;5096154;28;20043;-76
2021/06/03 11:01:12;;;;;;;13.68;4.63;;;;;;;;;;5096634;28;20026;-77
2021/06/03 11:03:41;;;;;;;5.90;4.72;;;;;;;;;;5095892;28;20362;-78
2021/06/03 11:06:09;;;;;;;10.10;5.18;;;;;;;;;;5096001;28;20493;-76
2021/06/03 11:08:36;;;;;;;9.40;4.55;;;;;;;;;;5096027;28;20024;-76
2021/06/03 11:11:22;;;;;;;19.13;5.68;;;;;;;;;;5095858;28;20024;-83
2021/06/03 11:14:08;;;;;;;7.18;4.85;;;;;;;;;;5095349;28;20027;-81
2021/06/03 11:16:46;;;;;;;7.85;4.60;;;;;;;;;;5095157;28;20050;-79
2021/06/03 11:19:12;;;;;;;9.93;4.75;;;;;;;;;;5096481;28;20020;-78
2021/06/03 11:21:48;;;;;;;14.57;4.45;;;;;;;;;;5095836;28;20038;-79
2021/06/03 11:24:35;;;;;;;4.35;3.88;;;;;;;;;;5095876;28;20020;-84
2021/06/03 11:27:02;;;;;;;4.53;4.03;;;;;;;;;;5095432;28;20424;-82
2021/06/03 11:29:29;;;;;;;7.57;5.32;;;;;;;;;;5095936;28;20527;-86
2021/06/03 11:32:15;;;;;;;5.57;4.72;;;;;;;;;;5095683;28;20067;-83
2021/06/03 11:34:43;;;;;;;5.63;4.75;;;;;;;;;;5094641;28;20032;-85
2021/06/03 11:37:11;;;;;;;5.00;4.50;;;;;;;;;;5095604;28;20020;-83
2021/06/03 11:39:45;;;;;;;5.22;4.68;;;;;;;;;;5095624;28;20028;-86
2021/06/03 11:42:19;;;;;;;10.32;4.25;;;;;;;;;;5095463;28;20028;-82
2021/06/03 11:45:07;;;;;;;4.95;4.45;;;;;;;;;;5095741;28;20483;-81
2021/06/03 11:47:56;;;;;;;7.55;4.57;;;;;;;;;;5094677;28;20051;-82
2021/06/03 11:50:42;;;;;;;12.77;4.75;;;;;;;;;;5089705;28;20458;-85
2021/06/03 11:53:08;;;;;;;7.22;4.88;;;;;;;;;;5093348;28;20085;-82
2021/06/03 11:55:43;;;;;;;7.03;4.60;;;;;;;;;;5093017;28;20385;-81
2021/06/03 11:58:29;;;;;;;9.93;5.13;;;;;;;;;;5094605;28;20032;-82
2021/06/03 12:01:15;;;;;;;11.13;4.20;;;;;;;;;;5094111;28;20016;-89
2021/06/03 12:03:44;;;;;;;22.92;4.65;;;;;;;;;;5087989;28;20088;-88
2021/06/03 12:06:30;;;;;;;13.98;4.80;;;;;;;;;;5094870;28;20024;-82
2021/06/03 12:08:57;;;;;;;5.22;4.25;;;;;;;;;;5080321;28;20123;-86
2021/06/03 12:11:44;;;;;;;5.95;4.68;;;;;;;;;;5094861;28;20082;-78
2021/06/03 12:14:15;;;;;;;4.95;4.07;;;;;;;;;;5080142;28;20054;-85
2021/06/03 12:16:44;;;;;;;6.35;4.00;;;;;;;;;;5094760;28;20020;-85
2021/06/03 12:19:12;;;;;;;29.80;7.07;;;;;;;;;;5094955;28;20055;-83
2021/06/03 12:21:38;;;;;;;15.25;7.40;;;;;;;;;;5094572;28;20028;-83
2021/06/03 12:24:05;;;;;;;25.48;9.73;;;;;;;;;;5094715;28;20036;-76
2021/06/03 12:26:31;;;;;;;24.90;9.32;;;;;;;;;;5094408;28;20039;-77
2021/06/03 12:28:57;;;;;;;18.50;8.68;;;;;;;;;;5095268;28;20028;-75
2021/06/03 12:31:24;;;;;;;25.38;9.32;;;;;;;;;;5094645;28;20028;-74
2021/06/03 12:33:50;;;;;;;32.97;10.05;;;;;;;;;;5094714;28;20534;-80
2021/06/03 12:36:16;;;;;;;30.42;9.25;;;;;;;;;;5094359;28;20036;-77
2021/06/03 12:38:44;;;;;;;14.90;7.55;;;;;;;;;;5094428;28;20028;-77
2021/06/03 12:41:21;;;;;;;12.55;7.47;;;;;;;;;;5094453;28;20024;-79
2021/06/03 12:43:51;;;;;;;19.10;7.53;;;;;;;;;;5094534;28;20074;-77
2021/06/03 12:46:17;;;;;;;18.55;7.38;;;;;;;;;;5094316;28;20035;-76
2021/06/03 12:48:43;;;;;;;21.45;8.57;;;;;;;;;;5094032;28;20051;-79
2021/06/03 12:51:10;;;;;;;13.85;6.78;;;;;;;;;;5094538;28;20102;-78
2021/06/03 12:53:36;;;;;;;16.00;7.07;;;;;;;;;;5094460;28;20032;-76
2021/06/03 12:56:22;;;;;;;22.42;7.95;;;;;;;;;;5094246;28;20405;-76
2021/06/03 12:58:48;;;;;;;14.10;8.27;;;;;;;;;;5094001;28;20024;-77
2021/06/03 13:01:15;;;;;;;18.90;6.85;;;;;;;;;;5094492;28;20049;-81
2021/06/03 13:03:41;;;;;;;14.48;7.10;;;;;;;;;;5107974;28;20031;-79
2021/06/03 13:06:08;;;;;;;16.73;7.53;;;;;;;;;;5117084;28;20103;-77
2021/06/03 13:08:42;;;;;;;16.17;6.78;;;;;;;;;;5117999;28;20443;-76
2021/06/03 13:11:09;;;;;;;10.73;6.85;;;;;;;;;;5117340;28;20019;-76
2021/06/03 13:13:35;;;;;;;14.68;6.72;;;;;;;;;;5115690;28;20118;-75
2021/06/03 13:16:01;;;;;;;24.10;6.07;;;;;;;;;;5096596;28;20028;-76
2021/06/03 13:18:27;;;;;;;14.85;7.90;;;;;;;;;;5095318;28;20078;-82
2021/06/03 13:20:55;;;;;;;15.10;5.78;;;;;;;;;;5094259;28;20103;-77
2021/06/03 13:23:22;;;;;;;12.70;6.53;;;;;;;;;;5109842;28;20031;-81
2021/06/03 13:25:49;;;;;;;8.25;6.78;;;;;;;;;;5095446;28;20024;-78
2021/06/03 13:28:23;;;;;;;12.80;6.25;;;;;;;;;;5094413;28;20473;-80
2021/06/03 13:30:51;;;;;;;12.43;5.70;;;;;;;;;;5094369;28;20020;-80
2021/06/03 13:33:18;;;;;;;7.07;5.40;;;;;;;;;;5094168;28;20035;-80
2021/06/03 13:35:45;;;;;;;8.93;5.72;;;;;;;;;;5092525;28;20445;-76
2021/06/03 13:38:11;;;;;;;16.42;7.18;;;;;;;;;;5094131;28;20458;-76
2021/06/03 13:40:38;;;;;;;9.20;5.97;;;;;;;;;;5093769;28;20028;-77
2021/06/03 13:43:08;;;;;;;8.40;5.55;;;;;;;;;;5093500;28;20359;-77
2021/06/03 13:45:37;;;;;;;12.43;5.60;;;;;;;;;;5093577;28;20379;-77
2021/06/03 13:48:06;;;;;;;10.75;5.65;;;;;;;;;;5091728;28;20030;-78
2021/06/03 13:50:34;;;;;;;15.65;6.05;;;;;;;;;;5092921;28;20048;-77
2021/06/03 13:53:01;;;;;;;7.82;4.80;;;;;;;;;;5093555;28;20055;-75
2021/06/03 13:55:32;;;;;;;10.05;5.43;;;;;;;;;;5093604;28;20778;-75
2021/06/03 13:57:58;;;;;;;25.70;5.82;;;;;;;;;;5094000;28;20035;-77
2021/06/03 14:00:25;;;;;;;5.95;4.70;;;;;;;;;;5093092;28;20424;-76
2021/06/03 14:03:11;;;;;;;6.03;5.07;;;;;;;;;;5093635;28;20058;-75
2021/06/03 14:05:38;;;;;;;7.45;5.30;;;;;;;;;;5078772;28;20027;-75
2021/06/03 14:08:05;;;;;;;12.07;5.75;;;;;;;;;;5093922;28;20101;-77
2021/06/03 14:10:32;;;;;;;8.13;5.32;;;;;;;;;;5093638;28;20031;-78
2021/06/03 14:13:01;;;;;;;12.48;5.18;;;;;;;;;;5093012;28;20051;-78
2021/06/03 14:15:27;;;;;;;6.20;5.32;;;;;;;;;;5093153;28;20377;-75
2021/06/03 14:18:08;;;;;;;5.38;4.85;;;;;;;;;;5093956;28;20025;-74
2021/06/03 14:20:34;;;;;;;15.50;5.45;;;;;;;;;;5092777;28;20024;-75
2021/06/03 14:23:00;;;;;;;7.45;4.90;;;;;;;;;;5096008;28;20040;-75
2021/06/03 14:25:35;;;;;;;8.93;5.35;;;;;;;;;;5096790;28;20489;-78
2021/06/03 14:28:01;;;;;;;9.35;4.72;;;;;;;;;;5097209;28;20060;-76
2021/06/03 14:30:30;;;;;;;17.55;5.28;;;;;;;;;;5097109;28;20028;-74
2021/06/03 14:32:58;;;;;;;4.45;4.05;;;;;;;;;;5095864;28;20020;-76
2021/06/03 14:35:25;;;;;;;8.48;4.82;;;;;;;;;;5095619;28;20107;-76
2021/06/03 14:37:52;;;;;;;11.52;5.53;;;;;;;;;;5095129;28;20030;-78
2021/06/03 14:40:27;;;;;;;6.47;5.25;;;;;;;;;;5095966;28;20099;-74
2021/06/03 14:42:53;;;;;;;9.52;4.53;;;;;;;;;;5096228;28;20413;-74